sensor_id;sensor_type;location;lat;lon;timestamp;pressure;altitude;pressure_sealevel;temperature;humidity
61898;BME280;47850;50.274;18.908;2024-01-10T00:01:29;99772.04;;;-14.89;86.82
61898;BME280;47850;50.274;18.908;2024-01-10T00:03:57;99771.20;;;-14.88;86.75
61898;BME280;47850;50.274;18.908;2024-01-10T00:06:25;99769.37;;;-14.87;86.84
61898;BME280;47850;50.274;18.908;2024-01-10T00:08:53;99767.40;;;-14.86;86.94
61898;BME280;47850;50.274;18.908;2024-01-10T00:11:21;99766.45;;;-14.85;86.51
61898;BME280;47850;50.274;18.908;2024-01-10T00:13:48;99762.73;;;-14.84;86.21
61898;BME280;47850;50.274;18.908;2024-01-10T00:16:16;99760.40;;;-14.85;86.22
61898;BME280;47850;50.274;18.908;2024-01-10T00:18:44;99755.55;;;-14.88;86.15
61898;BME280;47850;50.274;18.908;2024-01-10T00:21:12;99758.54;;;-14.88;86.20
61898;BME280;47850;50.274;18.908;2024-01-10T00:23:40;99754.89;;;-14.89;86.24
61898;BME280;47850;50.274;18.908;2024-01-10T00:26:07;99755.89;;;-14.91;86.19
61898;BME280;47850;50.274;18.908;2024-01-10T00:28:36;99752.13;;;-14.94;86.19
61898;BME280;47850;50.274;18.908;2024-01-10T00:31:03;99754.86;;;-14.96;86.38
61898;BME280;47850;50.274;18.908;2024-01-10T00:33:31;99752.98;;;-14.96;86.57
61898;BME280;47850;50.274;18.908;2024-01-10T00:35:59;99754.02;;;-14.96;86.75
61898;BME280;47850;50.274;18.908;2024-01-10T00:38:27;99756.42;;;-14.96;87.24
61898;BME280;47850;50.274;18.908;2024-01-10T00:40:55;99757.36;;;-14.94;87.28
61898;BME280;47850;50.274;18.908;2024-01-10T00:43:24;99764.00;;;-14.92;87.10
61898;BME280;47850;50.274;18.908;2024-01-10T00:45:52;99761.86;;;-14.94;86.70
61898;BME280;47850;50.274;18.908;2024-01-10T00:48:19;99765.71;;;-14.96;86.54
61898;BME280;47850;50.274;18.908;2024-01-10T00:50:47;99761.98;;;-14.97;86.82
61898;BME280;47850;50.274;18.908;2024-01-10T00:53:15;99765.27;;;-14.97;86.62
61898;BME280;47850;50.274;18.908;2024-01-10T00:55:43;99764.23;;;-14.97;86.64
61898;BME280;47850;50.274;18.908;2024-01-10T00:58:11;99763.83;;;-15.01;86.44
61898;BME280;47850;50.274;18.908;2024-01-10T01:00:38;99761.62;;;-15.06;86.24
61898;BME280;47850;50.274;18.908;2024-01-10T01:03:06;99760.88;;;-15.11;85.89
61898;BME280;47850;50.274;18.908;2024-01-10T01:05:34;99762.41;;;-15.15;86.33
61898;BME280;47850;50.274;18.908;2024-01-10T01:08:02;99766.21;;;-15.17;86.46
61898;BME280;47850;50.274;18.908;2024-01-10T01:10:31;99764.26;;;-15.18;86.51
61898;BME280;47850;50.274;18.908;2024-01-10T01:12:59;99765.40;;;-15.25;86.20
61898;BME280;47850;50.274;18.908;2024-01-10T01:15:27;99768.55;;;-15.30;86.08
61898;BME280;47850;50.274;18.908;2024-01-10T01:17:54;99768.43;;;-15.37;85.49
61898;BME280;47850;50.274;18.908;2024-01-10T01:20:22;99765.16;;;-15.40;85.51
61898;BME280;47850;50.274;18.908;2024-01-10T01:22:50;99764.02;;;-15.39;85.66
61898;BME280;47850;50.274;18.908;2024-01-10T01:25:17;99764.13;;;-15.34;86.06
61898;BME280;47850;50.274;18.908;2024-01-10T01:27:45;99764.06;;;-15.28;86.82
61898;BME280;47850;50.274;18.908;2024-01-10T01:30:13;99766.20;;;-15.26;86.44
61898;BME280;47850;50.274;18.908;2024-01-10T01:32:41;99764.77;;;-15.28;86.12
61898;BME280;47850;50.274;18.908;2024-01-10T01:35:09;99769.30;;;-15.26;86.25
61898;BME280;47850;50.274;18.908;2024-01-10T01:37:36;99770.66;;;-15.20;86.43
61898;BME280;47850;50.274;18.908;2024-01-10T01:40:05;99771.21;;;-15.14;87.16
61898;BME280;47850;50.274;18.908;2024-01-10T01:42:33;99765.10;;;-15.06;87.04
61898;BME280;47850;50.274;18.908;2024-01-10T01:45:01;99763.79;;;-15.01;86.77
61898;BME280;47850;50.274;18.908;2024-01-10T01:47:28;99760.57;;;-14.99;86.35
61898;BME280;47850;50.274;18.908;2024-01-10T01:49:56;99759.45;;;-14.97;86.47
61898;BME280;47850;50.274;18.908;2024-01-10T01:52:24;99754.34;;;-14.91;86.54
61898;BME280;47850;50.274;18.908;2024-01-10T01:54:52;99745.67;;;-14.92;86.02
61898;BME280;47850;50.274;18.908;2024-01-10T01:57:20;99738.06;;;-14.93;85.88
61898;BME280;47850;50.274;18.908;2024-01-10T01:59:48;99739.14;;;-14.90;86.21
61898;BME280;47850;50.274;18.908;2024-01-10T02:02:17;99733.48;;;-14.90;86.13
61898;BME280;47850;50.274;18.908;2024-01-10T02:04:46;99729.91;;;-14.88;86.45
61898;BME280;47850;50.274;18.908;2024-01-10T02:07:14;99728.28;;;-14.88;86.22
61898;BME280;47850;50.274;18.908;2024-01-10T02:09:42;99729.52;;;-14.86;86.27
61898;BME280;47850;50.274;18.908;2024-01-10T02:12:10;99729.33;;;-14.86;86.45
61898;BME280;47850;50.274;18.908;2024-01-10T02:14:37;99736.92;;;-14.87;86.39
61898;BME280;47850;50.274;18.908;2024-01-10T02:17:05;99735.64;;;-14.88;86.36
61898;BME280;47850;50.274;18.908;2024-01-10T02:19:33;99739.35;;;-14.86;86.79
61898;BME280;47850;50.274;18.908;2024-01-10T02:22:02;99734.91;;;-14.86;86.63
61898;BME280;47850;50.274;18.908;2024-01-10T02:24:31;99734.95;;;-14.86;86.54
61898;BME280;47850;50.274;18.908;2024-01-10T02:26:59;99740.48;;;-14.87;86.25
61898;BME280;47850;50.274;18.908;2024-01-10T02:29:27;99742.93;;;-14.90;86.13
61898;BME280;47850;50.274;18.908;2024-01-10T02:31:55;99741.27;;;-14.91;85.80
61898;BME280;47850;50.274;18.908;2024-01-10T02:34:23;99738.48;;;-14.94;86.17
61898;BME280;47850;50.274;18.908;2024-01-10T02:36:51;99733.81;;;-14.97;86.17
61898;BME280;47850;50.274;18.908;2024-01-10T02:39:18;99725.21;;;-15.01;86.19
61898;BME280;47850;50.274;18.908;2024-01-10T02:41:46;99722.91;;;-15.07;85.82
61898;BME280;47850;50.274;18.908;2024-01-10T02:44:14;99718.56;;;-15.12;85.98
61898;BME280;47850;50.274;18.908;2024-01-10T02:46:42;99715.84;;;-15.15;86.00
61898;BME280;47850;50.274;18.908;2024-01-10T02:49:09;99718.10;;;-15.17;86.36
61898;BME280;47850;50.274;18.908;2024-01-10T02:51:37;99714.82;;;-15.20;86.35
61898;BME280;47850;50.274;18.908;2024-01-10T02:54:05;99716.69;;;-15.24;86.37
61898;BME280;47850;50.274;18.908;2024-01-10T02:56:33;99714.02;;;-15.26;86.42
61898;BME280;47850;50.274;18.908;2024-01-10T02:59:00;99712.23;;;-15.25;86.93
61898;BME280;47850;50.274;18.908;2024-01-10T03:01:28;99711.86;;;-15.28;87.05
61898;BME280;47850;50.274;18.908;2024-01-10T03:03:56;99714.51;;;-15.30;87.01
61898;BME280;47850;50.274;18.908;2024-01-10T03:06:24;99710.88;;;-15.33;87.14
61898;BME280;47850;50.274;18.908;2024-01-10T03:08:52;99712.69;;;-15.36;87.28
61898;BME280;47850;50.274;18.908;2024-01-10T03:11:20;99714.30;;;-15.39;87.51
61898;BME280;47850;50.274;18.908;2024-01-10T03:13:49;99712.09;;;-15.42;87.40
61898;BME280;47850;50.274;18.908;2024-01-10T03:16:17;99716.52;;;-15.45;87.26
61898;BME280;47850;50.274;18.908;2024-01-10T03:18:46;99713.63;;;-15.46;87.76
61898;BME280;47850;50.274;18.908;2024-01-10T03:21:14;99709.37;;;-15.48;87.77
61898;BME280;47850;50.274;18.908;2024-01-10T03:23:41;99707.77;;;-15.47;87.91
61898;BME280;47850;50.274;18.908;2024-01-10T03:26:09;99698.70;;;-15.50;87.82
61898;BME280;47850;50.274;18.908;2024-01-10T03:28:37;99699.93;;;-15.52;87.88
61898;BME280;47850;50.274;18.908;2024-01-10T03:31:05;99697.05;;;-15.53;87.82
61898;BME280;47850;50.274;18.908;2024-01-10T03:33:32;99697.72;;;-15.53;88.13
61898;BME280;47850;50.274;18.908;2024-01-10T03:36:00;99696.59;;;-15.51;88.15
61898;BME280;47850;50.274;18.908;2024-01-10T03:38:28;99696.40;;;-15.51;87.93
61898;BME280;47850;50.274;18.908;2024-01-10T03:40:56;99693.93;;;-15.51;88.35
61898;BME280;47850;50.274;18.908;2024-01-10T03:43:24;99693.54;;;-15.50;88.81
61898;BME280;47850;50.274;18.908;2024-01-10T03:45:51;99695.95;;;-15.50;88.52
61898;BME280;47850;50.274;18.908;2024-01-10T03:48:19;99693.80;;;-15.51;88.20
61898;BME280;47850;50.274;18.908;2024-01-10T03:50:47;99698.14;;;-15.54;88.08
61898;BME280;47850;50.274;18.908;2024-01-10T03:53:15;99695.80;;;-15.55;88.35
61898;BME280;47850;50.274;18.908;2024-01-10T03:55:43;99688.79;;;-15.57;88.45
61898;BME280;47850;50.274;18.908;2024-01-10T03:58:10;99679.09;;;-15.58;88.04
61898;BME280;47850;50.274;18.908;2024-01-10T04:00:38;99676.38;;;-15.59;88.26
61898;BME280;47850;50.274;18.908;2024-01-10T04:03:06;99672.57;;;-15.62;87.79
61898;BME280;47850;50.274;18.908;2024-01-10T04:05:34;99674.27;;;-15.62;88.25
61898;BME280;47850;50.274;18.908;2024-01-10T04:08:01;99675.52;;;-15.62;88.51
61898;BME280;47850;50.274;18.908;2024-01-10T04:10:30;99669.23;;;-15.62;88.67
61898;BME280;47850;50.274;18.908;2024-01-10T04:12:58;99676.82;;;-15.63;88.65
61898;BME280;47850;50.274;18.908;2024-01-10T04:15:28;99684.12;;;-15.62;88.80
61898;BME280;47850;50.274;18.908;2024-01-10T04:17:56;99684.41;;;-15.62;88.88
61898;BME280;47850;50.274;18.908;2024-01-10T04:20:24;99682.73;;;-15.65;88.42
61898;BME280;47850;50.274;18.908;2024-01-10T04:22:51;99687.89;;;-15.66;88.51
61898;BME280;47850;50.274;18.908;2024-01-10T04:25:19;99689.15;;;-15.64;88.79
61898;BME280;47850;50.274;18.908;2024-01-10T04:27:48;99688.89;;;-15.63;89.08
61898;BME280;47850;50.274;18.908;2024-01-10T04:30:17;99693.55;;;-15.63;88.73
61898;BME280;47850;50.274;18.908;2024-01-10T04:32:45;99695.77;;;-15.62;88.82
61898;BME280;47850;50.274;18.908;2024-01-10T04:35:13;99688.80;;;-15.60;88.91
61898;BME280;47850;50.274;18.908;2024-01-10T04:37:41;99686.88;;;-15.60;88.73
61898;BME280;47850;50.274;18.908;2024-01-10T04:40:09;99687.20;;;-15.62;88.54
61898;BME280;47850;50.274;18.908;2024-01-10T04:42:36;99685.36;;;-15.62;88.60
61898;BME280;47850;50.274;18.908;2024-01-10T04:45:05;99682.09;;;-15.63;88.58
61898;BME280;47850;50.274;18.908;2024-01-10T04:47:35;99681.05;;;-15.66;88.40
61898;BME280;47850;50.274;18.908;2024-01-10T04:50:03;99684.97;;;-15.67;88.48
61898;BME280;47850;50.274;18.908;2024-01-10T04:52:31;99679.44;;;-15.67;88.41
61898;BME280;47850;50.274;18.908;2024-01-10T04:54:59;99679.16;;;-15.68;88.49
61898;BME280;47850;50.274;18.908;2024-01-10T04:57:27;99682.05;;;-15.67;88.60
61898;BME280;47850;50.274;18.908;2024-01-10T04:59:54;99687.48;;;-15.65;89.08
61898;BME280;47850;50.274;18.908;2024-01-10T05:02:22;99689.12;;;-15.64;89.35
61898;BME280;47850;50.274;18.908;2024-01-10T05:04:50;99692.60;;;-15.64;89.11
61898;BME280;47850;50.274;18.908;2024-01-10T05:07:18;99686.85;;;-15.64;88.94
61898;BME280;47850;50.274;18.908;2024-01-10T05:09:46;99683.18;;;-15.64;89.49
61898;BME280;47850;50.274;18.908;2024-01-10T05:12:13;99680.88;;;-15.63;89.27
61898;BME280;47850;50.274;18.908;2024-01-10T05:14:41;99681.98;;;-15.62;89.52
61898;BME280;47850;50.274;18.908;2024-01-10T05:17:09;99682.05;;;-15.60;90.29
61898;BME280;47850;50.274;18.908;2024-01-10T05:19:37;99676.80;;;-15.58;90.17
61898;BME280;47850;50.274;18.908;2024-01-10T05:22:05;99672.07;;;-15.60;89.85
61898;BME280;47850;50.274;18.908;2024-01-10T05:24:33;99673.27;;;-15.60;89.80
61898;BME280;47850;50.274;18.908;2024-01-10T05:27:03;99680.14;;;-15.61;89.37
61898;BME280;47850;50.274;18.908;2024-01-10T05:29:31;99680.10;;;-15.62;89.24
61898;BME280;47850;50.274;18.908;2024-01-10T05:31:59;99675.36;;;-15.62;89.60
61898;BME280;47850;50.274;18.908;2024-01-10T05:34:28;99667.70;;;-15.60;89.99
61898;BME280;47850;50.274;18.908;2024-01-10T05:36:55;99666.66;;;-15.60;89.84
61898;BME280;47850;50.274;18.908;2024-01-10T05:39:23;99663.42;;;-15.59;89.79
61898;BME280;47850;50.274;18.908;2024-01-10T05:41:51;99664.33;;;-15.57;90.14
61898;BME280;47850;50.274;18.908;2024-01-10T05:44:19;99665.86;;;-15.56;90.08
61898;BME280;47850;50.274;18.908;2024-01-10T05:46:46;99676.52;;;-15.53;90.40
61898;BME280;47850;50.274;18.908;2024-01-10T05:49:15;99674.22;;;-15.51;90.38
61898;BME280;47850;50.274;18.908;2024-01-10T05:51:43;99673.02;;;-15.49;90.42
61898;BME280;47850;50.274;18.908;2024-01-10T05:54:10;99673.09;;;-15.48;90.19
61898;BME280;47850;50.274;18.908;2024-01-10T05:56:38;99672.56;;;-15.47;90.12
61898;BME280;47850;50.274;18.908;2024-01-10T05:59:06;99674.94;;;-15.46;90.23
61898;BME280;47850;50.274;18.908;2024-01-10T06:01:34;99677.68;;;-15.48;89.76
61898;BME280;47850;50.274;18.908;2024-01-10T06:04:02;99678.04;;;-15.48;90.02
61898;BME280;47850;50.274;18.908;2024-01-10T06:06:30;99684.55;;;-15.47;89.98
61898;BME280;47850;50.274;18.908;2024-01-10T06:08:58;99687.59;;;-15.45;90.02
61898;BME280;47850;50.274;18.908;2024-01-10T06:11:26;99688.97;;;-15.43;89.98
61898;BME280;47850;50.274;18.908;2024-01-10T06:13:54;99690.66;;;-15.42;89.99
61898;BME280;47850;50.274;18.908;2024-01-10T06:16:21;99694.29;;;-15.44;89.79
61898;BME280;47850;50.274;18.908;2024-01-10T06:18:49;99692.60;;;-15.45;89.84
61898;BME280;47850;50.274;18.908;2024-01-10T06:21:17;99697.15;;;-15.43;89.98
61898;BME280;47850;50.274;18.908;2024-01-10T06:23:45;99697.30;;;-15.43;89.87
61898;BME280;47850;50.274;18.908;2024-01-10T06:26:14;99700.04;;;-15.42;89.98
61898;BME280;47850;50.274;18.908;2024-01-10T06:28:42;99706.45;;;-15.41;89.99
61898;BME280;47850;50.274;18.908;2024-01-10T06:31:10;99705.88;;;-15.38;90.43
61898;BME280;47850;50.274;18.908;2024-01-10T06:33:37;99704.98;;;-15.36;90.49
61898;BME280;47850;50.274;18.908;2024-01-10T06:36:05;99703.09;;;-15.33;90.24
61898;BME280;47850;50.274;18.908;2024-01-10T06:38:35;99703.99;;;-15.32;90.27
61898;BME280;47850;50.274;18.908;2024-01-10T06:41:09;99705.27;;;-15.30;90.06
61898;BME280;47850;50.274;18.908;2024-01-10T06:43:37;99703.23;;;-15.29;90.06
61898;BME280;47850;50.274;18.908;2024-01-10T06:46:05;99703.54;;;-15.28;89.99
61898;BME280;47850;50.274;18.908;2024-01-10T06:48:33;99700.27;;;-15.29;89.78
61898;BME280;47850;50.274;18.908;2024-01-10T06:51:01;99697.16;;;-15.27;89.80
61898;BME280;47850;50.274;18.908;2024-01-10T06:53:29;99699.80;;;-15.25;90.00
61898;BME280;47850;50.274;18.908;2024-01-10T06:55:57;99698.77;;;-15.20;90.21
61898;BME280;47850;50.274;18.908;2024-01-10T06:58:25;99704.34;;;-15.15;90.07
61898;BME280;47850;50.274;18.908;2024-01-10T07:00:53;99706.17;;;-15.12;90.23
61898;BME280;47850;50.274;18.908;2024-01-10T07:03:20;99702.60;;;-15.06;89.99
61898;BME280;47850;50.274;18.908;2024-01-10T07:05:48;99698.23;;;-15.01;90.23
61898;BME280;47850;50.274;18.908;2024-01-10T07:08:16;99693.84;;;-14.97;90.21
61898;BME280;47850;50.274;18.908;2024-01-10T07:10:44;99697.24;;;-14.91;89.94
61898;BME280;47850;50.274;18.908;2024-01-10T07:13:12;99693.94;;;-14.86;90.18
61898;BME280;47850;50.274;18.908;2024-01-10T07:15:39;99692.02;;;-14.81;90.00
61898;BME280;47850;50.274;18.908;2024-01-10T07:18:07;99693.10;;;-14.78;89.65
61898;BME280;47850;50.274;18.908;2024-01-10T07:20:35;99688.41;;;-14.73;89.48
61898;BME280;47850;50.274;18.908;2024-01-10T07:23:03;99683.33;;;-14.71;89.65
61898;BME280;47850;50.274;18.908;2024-01-10T07:25:31;99684.82;;;-14.68;89.26
61898;BME280;47850;50.274;18.908;2024-01-10T07:27:59;99683.92;;;-14.61;89.76
61898;BME280;47850;50.274;18.908;2024-01-10T07:30:27;99687.39;;;-14.51;89.76
61898;BME280;47850;50.274;18.908;2024-01-10T07:32:55;99683.10;;;-14.44;90.08
61898;BME280;47850;50.274;18.908;2024-01-10T07:35:23;99680.65;;;-14.35;90.34
61898;BME280;47850;50.274;18.908;2024-01-10T07:37:50;99680.57;;;-14.25;90.21
61898;BME280;47850;50.274;18.908;2024-01-10T07:40:19;99683.66;;;-14.16;90.04
61898;BME280;47850;50.274;18.908;2024-01-10T07:42:47;99679.90;;;-14.05;90.12
61898;BME280;47850;50.274;18.908;2024-01-10T07:45:14;99680.83;;;-13.98;89.98
61898;BME280;47850;50.274;18.908;2024-01-10T07:47:42;99679.79;;;-13.91;89.70
61898;BME280;47850;50.274;18.908;2024-01-10T07:50:11;99675.23;;;-13.82;89.93
61898;BME280;47850;50.274;18.908;2024-01-10T07:52:43;99672.61;;;-13.76;89.41
61898;BME280;47850;50.274;18.908;2024-01-10T07:55:11;99672.86;;;-13.70;89.54
61898;BME280;47850;50.274;18.908;2024-01-10T07:57:39;99671.80;;;-13.64;89.24
61898;BME280;47850;50.274;18.908;2024-01-10T08:00:07;99675.42;;;-13.57;89.44
61898;BME280;47850;50.274;18.908;2024-01-10T08:02:38;99676.61;;;-13.52;89.37
61898;BME280;47850;50.274;18.908;2024-01-10T08:05:07;99682.46;;;-13.46;89.35
61898;BME280;47850;50.274;18.908;2024-01-10T08:07:38;99675.88;;;-13.41;89.53
61898;BME280;47850;50.274;18.908;2024-01-10T08:10:07;99671.20;;;-13.33;89.51
61898;BME280;47850;50.274;18.908;2024-01-10T08:12:39;99671.55;;;-13.27;89.64
61898;BME280;47850;50.274;18.908;2024-01-10T08:15:08;99680.31;;;-13.21;89.50
61898;BME280;47850;50.274;18.908;2024-01-10T08:17:38;99676.66;;;-13.13;89.74
61898;BME280;47850;50.274;18.908;2024-01-10T08:20:07;99674.24;;;-13.05;89.55
61898;BME280;47850;50.274;18.908;2024-01-10T08:22:35;99675.05;;;-12.98;89.49
61898;BME280;47850;50.274;18.908;2024-01-10T08:25:04;99678.20;;;-12.91;89.57
61898;BME280;47850;50.274;18.908;2024-01-10T08:27:32;99671.58;;;-12.84;89.88
61898;BME280;47850;50.274;18.908;2024-01-10T08:30:05;99672.66;;;-12.74;89.83
61898;BME280;47850;50.274;18.908;2024-01-10T08:32:33;99668.51;;;-12.64;89.40
61898;BME280;47850;50.274;18.908;2024-01-10T08:35:03;99671.58;;;-12.55;89.45
61898;BME280;47850;50.274;18.908;2024-01-10T08:37:36;99677.80;;;-12.48;89.12
61898;BME280;47850;50.274;18.908;2024-01-10T08:40:05;99681.80;;;-12.41;88.92
61898;BME280;47850;50.274;18.908;2024-01-10T08:42:38;99681.68;;;-12.34;89.12
61898;BME280;47850;50.274;18.908;2024-01-10T08:45:06;99678.20;;;-12.24;89.18
61898;BME280;47850;50.274;18.908;2024-01-10T08:47:37;99673.66;;;-12.12;89.58
61898;BME280;47850;50.274;18.908;2024-01-10T08:50:05;99678.37;;;-12.00;89.45
61898;BME280;47850;50.274;18.908;2024-01-10T08:52:36;99683.09;;;-11.88;89.41
61898;BME280;47850;50.274;18.908;2024-01-10T08:55:07;99678.16;;;-11.77;89.30
61898;BME280;47850;50.274;18.908;2024-01-10T08:57:35;99674.90;;;-11.65;89.03
61898;BME280;47850;50.274;18.908;2024-01-10T09:00:03;99673.67;;;-11.54;89.37
61898;BME280;47850;50.274;18.908;2024-01-10T09:02:34;99676.77;;;-11.43;89.05
61898;BME280;47850;50.274;18.908;2024-01-10T09:05:04;99678.62;;;-11.34;88.90
61898;BME280;47850;50.274;18.908;2024-01-10T09:07:32;99678.17;;;-11.26;88.66
61898;BME280;47850;50.274;18.908;2024-01-10T09:10:00;99679.06;;;-11.16;88.80
61898;BME280;47850;50.274;18.908;2024-01-10T09:12:28;99676.90;;;-11.04;88.81
61898;BME280;47850;50.274;18.908;2024-01-10T09:14:56;99674.29;;;-10.95;88.51
61898;BME280;47850;50.274;18.908;2024-01-10T09:17:23;99668.70;;;-10.88;88.19
61898;BME280;47850;50.274;18.908;2024-01-10T09:19:53;99664.80;;;-10.78;88.02
61898;BME280;47850;50.274;18.908;2024-01-10T09:22:21;99663.79;;;-10.70;87.66
61898;BME280;47850;50.274;18.908;2024-01-10T09:24:49;99667.38;;;-10.60;87.68
61898;BME280;47850;50.274;18.908;2024-01-10T09:27:17;99663.15;;;-10.49;87.53
61898;BME280;47850;50.274;18.908;2024-01-10T09:29:44;99662.42;;;-10.38;87.51
61898;BME280;47850;50.274;18.908;2024-01-10T09:32:12;99666.38;;;-10.28;87.07
61898;BME280;47850;50.274;18.908;2024-01-10T09:34:40;99666.44;;;-10.19;86.58
61898;BME280;47850;50.274;18.908;2024-01-10T09:37:08;99662.09;;;-10.13;86.14
61898;BME280;47850;50.274;18.908;2024-01-10T09:39:36;99662.73;;;-10.06;85.54
61898;BME280;47850;50.274;18.908;2024-01-10T09:42:04;99662.57;;;-9.97;85.78
61898;BME280;47850;50.274;18.908;2024-01-10T09:44:32;99661.20;;;-9.89;85.18
61898;BME280;47850;50.274;18.908;2024-01-10T09:47:01;99658.36;;;-9.83;84.59
61898;BME280;47850;50.274;18.908;2024-01-10T09:49:29;99659.02;;;-9.75;84.46
61898;BME280;47850;50.274;18.908;2024-01-10T09:51:58;99660.85;;;-9.62;85.13
61898;BME280;47850;50.274;18.908;2024-01-10T09:54:30;99660.90;;;-9.44;85.46
61898;BME280;47850;50.274;18.908;2024-01-10T09:56:58;99657.74;;;-9.30;85.02
61898;BME280;47850;50.274;18.908;2024-01-10T09:59:27;99654.18;;;-9.15;84.76
61898;BME280;47850;50.274;18.908;2024-01-10T10:01:56;99643.80;;;-8.98;84.94
61898;BME280;47850;50.274;18.908;2024-01-10T10:04:27;99646.31;;;-8.87;84.01
61898;BME280;47850;50.274;18.908;2024-01-10T10:06:59;99645.10;;;-8.74;83.73
61898;BME280;47850;50.274;18.908;2024-01-10T10:09:29;99640.53;;;-8.59;83.79
61898;BME280;47850;50.274;18.908;2024-01-10T10:11:57;99635.75;;;-8.45;83.08
61898;BME280;47850;50.274;18.908;2024-01-10T10:14:29;99636.84;;;-8.38;82.28
61898;BME280;47850;50.274;18.908;2024-01-10T10:17:16;99638.50;;;-8.26;82.24
61898;BME280;47850;50.274;18.908;2024-01-10T10:19:45;99637.91;;;-8.08;82.30
61898;BME280;47850;50.274;18.908;2024-01-10T10:22:13;99636.40;;;-7.92;82.41
61898;BME280;47850;50.274;18.908;2024-01-10T10:24:41;99632.68;;;-7.72;82.12
61898;BME280;47850;50.274;18.908;2024-01-10T10:27:12;99631.58;;;-7.56;81.53
61898;BME280;47850;50.274;18.908;2024-01-10T10:29:42;99635.92;;;-7.40;81.20
61898;BME280;47850;50.274;18.908;2024-01-10T10:32:10;99633.28;;;-7.22;80.90
61898;BME280;47850;50.274;18.908;2024-01-10T10:34:37;99630.00;;;-7.02;80.75
61898;BME280;47850;50.274;18.908;2024-01-10T10:37:05;99628.08;;;-6.87;79.40
61898;BME280;47850;50.274;18.908;2024-01-10T10:39:33;99630.06;;;-6.75;78.78
61898;BME280;47850;50.274;18.908;2024-01-10T10:42:02;99628.57;;;-6.60;78.43
61898;BME280;47850;50.274;18.908;2024-01-10T10:44:33;99622.07;;;-6.46;77.91
61898;BME280;47850;50.274;18.908;2024-01-10T10:47:04;99619.59;;;-6.31;77.16
61898;BME280;47850;50.274;18.908;2024-01-10T10:49:47;99620.55;;;-6.19;75.83
61898;BME280;47850;50.274;18.908;2024-01-10T10:52:21;99619.61;;;-6.07;75.94
61898;BME280;47850;50.274;18.908;2024-01-10T10:54:51;99617.11;;;-5.89;76.05
61898;BME280;47850;50.274;18.908;2024-01-10T10:57:25;99617.75;;;-5.72;75.50
61898;BME280;47850;50.274;18.908;2024-01-10T10:59:55;99619.89;;;-5.49;75.70
61898;BME280;47850;50.274;18.908;2024-01-10T11:02:23;99619.73;;;-5.23;75.24
61898;BME280;47850;50.274;18.908;2024-01-10T11:04:53;99617.90;;;-5.03;73.98
61898;BME280;47850;50.274;18.908;2024-01-10T11:07:29;99618.60;;;-4.86;73.49
61898;BME280;47850;50.274;18.908;2024-01-10T11:09:57;99615.88;;;-4.72;72.02
61898;BME280;47850;50.274;18.908;2024-01-10T11:24:31;99608.79;;;-4.01;69.04
61898;BME280;47850;50.274;18.908;2024-01-10T11:27:15;99607.13;;;-3.61;69.10
61898;BME280;47850;50.274;18.908;2024-01-10T11:29:45;99604.35;;;-3.01;68.68
61898;BME280;47850;50.274;18.908;2024-01-10T11:32:15;99595.71;;;-2.44;67.16
61898;BME280;47850;50.274;18.908;2024-01-10T11:35:05;99601.80;;;-1.90;65.96
61898;BME280;47850;50.274;18.908;2024-01-10T11:37:42;99600.25;;;-1.21;64.94
61898;BME280;47850;50.274;18.908;2024-01-10T11:40:14;99602.82;;;-0.57;64.21
61898;BME280;47850;50.274;18.908;2024-01-10T11:42:45;99601.70;;;0.01;62.34
61898;BME280;47850;50.274;18.908;2024-01-10T11:48:07;99597.89;;;1.03;57.81
61898;BME280;47850;50.274;18.908;2024-01-10T11:50:35;99597.52;;;1.39;56.66
61898;BME280;47850;50.274;18.908;2024-01-10T11:53:03;99593.67;;;1.90;56.13
61898;BME280;47850;50.274;18.908;2024-01-10T11:55:52;99591.88;;;2.44;54.21
61898;BME280;47850;50.274;18.908;2024-01-10T11:58:23;99591.90;;;2.61;52.09
61898;BME280;47850;50.274;18.908;2024-01-10T12:00:51;99588.27;;;2.74;51.47
61898;BME280;47850;50.274;18.908;2024-01-10T12:03:21;99590.32;;;2.87;50.42
61898;BME280;47850;50.274;18.908;2024-01-10T12:05:49;99589.13;;;3.04;48.73
61898;BME280;47850;50.274;18.908;2024-01-10T12:08:21;99586.93;;;3.22;48.25
61898;BME280;47850;50.274;18.908;2024-01-10T12:10:49;99585.99;;;3.45;48.02
61898;BME280;47850;50.274;18.908;2024-01-10T12:13:19;99584.47;;;3.74;46.71
61898;BME280;47850;50.274;18.908;2024-01-10T12:15:47;99582.52;;;3.94;46.48
61898;BME280;47850;50.274;18.908;2024-01-10T12:18:15;99572.84;;;4.51;46.55
61898;BME280;47850;50.274;18.908;2024-01-10T12:20:44;99577.33;;;5.18;45.94
61898;BME280;47850;50.274;18.908;2024-01-10T12:23:12;99571.75;;;5.69;44.11
61898;BME280;47850;50.274;18.908;2024-01-10T12:25:40;99577.16;;;5.87;42.40
61898;BME280;47850;50.274;18.908;2024-01-10T12:28:08;99571.30;;;5.99;41.72
61898;BME280;47850;50.274;18.908;2024-01-10T12:30:36;99570.56;;;6.40;41.48
61898;BME280;47850;50.274;18.908;2024-01-10T12:33:03;99570.20;;;6.61;39.92
61898;BME280;47850;50.274;18.908;2024-01-10T12:35:31;99571.68;;;6.76;39.78
61898;BME280;47850;50.274;18.908;2024-01-10T12:37:59;99572.84;;;7.29;39.85
61898;BME280;47850;50.274;18.908;2024-01-10T12:40:27;99568.36;;;7.88;39.30
61898;BME280;47850;50.274;18.908;2024-01-10T12:43:04;99567.05;;;8.37;38.71
61898;BME280;47850;50.274;18.908;2024-01-10T12:45:34;99562.95;;;8.49;37.43
61898;BME280;47850;50.274;18.908;2024-01-10T12:48:02;99557.81;;;8.40;36.50
61898;BME280;47850;50.274;18.908;2024-01-10T12:50:30;99554.19;;;8.15;35.39
61898;BME280;47850;50.274;18.908;2024-01-10T12:52:58;99550.34;;;7.92;35.62
61898;BME280;47850;50.274;18.908;2024-01-10T12:55:27;99546.95;;;7.82;35.55
61898;BME280;47850;50.274;18.908;2024-01-10T12:57:55;99540.36;;;8.02;36.29
61898;BME280;47850;50.274;18.908;2024-01-10T13:00:28;99537.01;;;8.65;35.20
61898;BME280;47850;50.274;18.908;2024-01-10T13:02:56;99537.01;;;9.11;32.99
61898;BME280;47850;50.274;18.908;2024-01-10T13:05:24;99533.96;;;8.81;32.17